createdAt,value
2018-04-28T00:02:05.512Z,12.90
2018-04-28T00:07:08.779Z,12.60
2018-04-28T00:12:12.517Z,12.00
2018-04-28T00:17:15.785Z,12.00
2018-04-28T00:22:37.708Z,12.10
2018-04-28T00:27:47.464Z,12.20
2018-04-28T00:32:50.718Z,11.90
2018-04-28T00:37:54.024Z,11.50
2018-04-28T00:42:57.680Z,11.30
2018-04-28T00:48:00.939Z,11.40
2018-04-28T00:53:04.642Z,11.50
2018-04-28T00:58:19.965Z,11.60
2018-04-28T01:08:51.438Z,11.50
2018-04-28T01:19:38.900Z,11.10
2018-04-28T01:24:59.095Z,11.40
2018-04-28T01:35:43.356Z,11.30
2018-04-28T01:40:46.605Z,11.30
2018-04-28T01:51:39.946Z,11.00
2018-04-28T01:56:44.870Z,11.00
2018-04-28T02:01:48.483Z,10.80
2018-04-28T02:07:07.878Z,10.60
2018-04-28T02:18:08.053Z,10.70
2018-04-28T02:28:47.462Z,10.60
2018-04-28T02:33:50.712Z,10.30
2018-04-28T02:39:09.757Z,10.10
2018-04-28T02:44:19.964Z,10.10
2018-04-28T02:49:23.889Z,10.10
2018-04-28T02:54:36.834Z,9.90
2018-04-28T02:59:56.148Z,9.50
2018-04-28T03:05:00.110Z,9.60
2018-04-28T03:10:04.266Z,9.50
2018-04-28T03:15:07.908Z,9.50
2018-04-28T03:20:14.844Z,9.50
2018-04-28T03:25:23.649Z,9.20
2018-04-28T03:30:34.748Z,9.10
2018-04-28T03:41:15.800Z,9.30
2018-04-28T03:46:22.942Z,9.00
2018-04-28T03:51:27.227Z,8.90
2018-04-28T03:56:40.460Z,8.90
2018-04-28T04:01:55.717Z,9.00
2018-04-28T04:07:03.865Z,8.90
2018-04-28T04:12:14.980Z,8.90
2018-04-28T04:22:55.538Z,9.00
2018-04-28T04:28:09.466Z,9.30
2018-04-28T04:33:16.332Z,9.70
2018-04-28T04:38:24.286Z,9.80
2018-04-28T04:49:13.405Z,10.10
2018-04-28T04:54:32.614Z,10.20
2018-04-28T05:11:32.842Z,10.40
2018-04-28T05:16:45.852Z,10.70
2018-04-28T05:28:19.126Z,11.60
2018-04-28T05:33:34.550Z,11.60
2018-04-28T05:38:58.713Z,11.90
2018-04-28T05:50:12.166Z,12.20
2018-04-28T05:55:30.352Z,12.30
2018-04-28T06:00:45.302Z,12.60
2018-04-28T06:06:13.442Z,12.50
2018-04-28T06:17:19.086Z,13.00
2018-04-28T06:22:22.313Z,13.40
2018-04-28T06:27:25.592Z,13.60
2018-04-28T06:32:28.877Z,13.60
2018-04-28T06:37:32.154Z,13.60
2018-04-28T06:42:35.800Z,13.90
2018-04-28T06:47:39.056Z,13.90
2018-04-28T06:52:42.294Z,14.00
2018-04-28T06:57:45.510Z,14.40
2018-04-28T07:02:48.826Z,14.60
2018-04-28T07:07:52.088Z,14.80
2018-04-28T07:12:57.006Z,14.90
2018-04-28T07:18:00.266Z,15.10
2018-04-28T07:23:03.541Z,15.30
2018-04-28T07:28:06.779Z,15.50
2018-04-28T07:33:10.058Z,15.40
2018-04-28T07:38:13.316Z,15.90
2018-04-28T07:43:16.571Z,15.80
2018-04-28T07:48:19.810Z,16.10
2018-04-28T07:53:23.087Z,16.10
2018-04-28T07:58:26.392Z,15.70
2018-04-28T08:03:29.627Z,15.90
2018-04-28T08:08:32.876Z,16.20
2018-04-28T08:13:36.114Z,16.40
2018-04-28T08:18:39.386Z,16.40
2018-04-28T08:23:42.655Z,16.60
2018-04-28T08:28:46.058Z,16.60
2018-04-28T08:33:49.340Z,16.70
2018-04-28T08:38:53.004Z,16.80
2018-04-28T08:43:56.370Z,16.80
2018-04-28T08:48:59.986Z,16.90
2018-04-28T08:54:03.714Z,17.40
2018-04-28T08:59:07.898Z,17.60
2018-04-28T09:04:11.153Z,17.60
2018-04-28T09:09:18.475Z,17.70
2018-04-28T09:14:22.379Z,17.70
2018-04-28T09:19:25.667Z,18.00
2018-04-28T09:24:28.967Z,18.30
2018-04-28T09:29:32.193Z,18.80
2018-04-28T09:34:35.790Z,19.00
2018-04-28T09:39:39.095Z,19.00
2018-04-28T09:44:42.315Z,19.30
2018-04-28T09:49:45.930Z,19.10
2018-04-28T09:54:49.577Z,19.40
2018-04-28T09:59:53.057Z,19.40
2018-04-28T10:04:56.351Z,19.90
2018-04-28T10:10:00.273Z,19.80
2018-04-28T10:15:03.523Z,20.20
2018-04-28T10:20:06.974Z,20.50
2018-04-28T10:25:10.748Z,20.50
2018-04-28T10:30:13.970Z,21.10
2018-04-28T10:35:17.321Z,21.40
2018-04-28T10:40:20.563Z,21.60
2018-04-28T10:45:23.798Z,21.80
2018-04-28T10:50:27.371Z,21.30
2018-04-28T10:55:30.867Z,20.70
2018-04-28T11:00:34.588Z,20.40
2018-04-28T11:05:38.275Z,20.20
2018-04-28T11:10:41.684Z,20.20
2018-04-28T11:15:45.080Z,20.90
2018-04-28T11:20:48.857Z,21.20
2018-04-28T11:25:52.141Z,21.50
2018-04-28T11:30:57.190Z,22.50
2018-04-28T11:36:00.490Z,22.50
2018-04-28T11:41:03.739Z,22.50
2018-04-28T11:46:08.480Z,22.70
2018-04-28T11:51:11.841Z,23.60
2018-04-28T11:56:15.288Z,25.60
2018-04-28T12:01:19.006Z,26.90
2018-04-28T12:06:22.597Z,27.00
2018-04-28T12:11:26.269Z,28.90
2018-04-28T12:16:29.608Z,28.90
2018-04-28T12:21:33.026Z,29.60
2018-04-28T12:26:36.364Z,30.40
2018-04-28T12:31:39.844Z,30.40
2018-04-28T12:36:43.152Z,30.10
2018-04-28T12:41:46.766Z,28.90
2018-04-28T12:46:50.179Z,27.70
2018-04-28T12:51:53.692Z,25.80
2018-04-28T12:56:57.447Z,24.40
2018-04-28T13:02:01.528Z,24.40
2018-04-28T13:07:05.712Z,23.00
2018-04-28T13:12:09.064Z,24.70
2018-04-28T13:17:12.347Z,27.40
2018-04-28T13:22:15.587Z,30.50
2018-04-28T13:27:19.213Z,31.70
2018-04-28T13:32:22.937Z,31.80
2018-04-28T13:37:26.178Z,31.80
2018-04-28T13:42:29.536Z,31.80
2018-04-28T13:47:33.348Z,27.00
2018-04-28T13:52:36.856Z,27.00
2018-04-28T13:57:40.138Z,26.20
2018-04-28T14:02:43.492Z,25.80
2018-04-28T14:07:46.743Z,26.30
2018-04-28T14:12:50.086Z,27.80
2018-04-28T14:17:53.378Z,27.10
2018-04-28T14:22:56.712Z,26.00
2018-04-28T14:28:00.435Z,26.10
2018-04-28T14:33:04.651Z,25.50
2018-04-28T14:38:07.884Z,25.50
2018-04-28T14:43:11.370Z,25.10
2018-04-28T14:48:14.602Z,25.30
2018-04-28T14:53:17.820Z,24.90
2018-04-28T14:58:21.169Z,26.50
2018-04-28T15:03:24.389Z,26.10
2018-04-28T15:08:28.382Z,26.10
2018-04-28T15:13:32.137Z,26.50
2018-04-28T15:18:35.380Z,26.50
2018-04-28T15:23:38.600Z,27.50
2018-04-28T15:28:41.832Z,28.30
2018-04-28T15:33:45.342Z,27.90
2018-04-28T15:38:49.392Z,27.00
2018-04-28T15:43:52.715Z,26.70
2018-04-28T15:48:56.349Z,30.70
2018-04-28T15:53:59.690Z,30.70
2018-04-28T15:59:03.032Z,32.80
2018-04-28T16:04:06.749Z,31.50
2018-04-28T16:09:10.005Z,31.50
2018-04-28T16:14:13.497Z,31.40
2018-04-28T16:19:16.778Z,31.90
2018-04-28T16:24:20.394Z,33.30
2018-04-28T16:29:24.690Z,33.30
2018-04-28T16:34:28.049Z,33.30
2018-04-28T16:39:31.304Z,33.10
2018-04-28T16:44:34.525Z,33.20
2018-04-28T16:49:42.592Z,32.70
2018-04-28T16:54:45.863Z,31.70
2018-04-28T16:59:49.492Z,26.10
2018-04-28T17:04:53.195Z,24.30
2018-04-28T17:09:56.447Z,24.30
2018-04-28T17:14:59.715Z,23.20
2018-04-28T17:20:03.342Z,22.20
2018-04-28T17:25:06.966Z,22.30
2018-04-28T17:30:10.214Z,22.30
2018-04-28T17:35:13.452Z,21.90
2018-04-28T17:40:17.076Z,21.10
2018-04-28T17:45:20.692Z,21.20
2018-04-28T17:50:24.307Z,21.00
2018-04-28T17:55:27.931Z,20.40
2018-04-28T18:00:31.555Z,19.90
2018-04-28T18:05:34.831Z,19.90
2018-04-28T18:10:38.472Z,19.60
2018-04-28T18:15:41.691Z,19.60
2018-04-28T18:20:44.915Z,19.70
2018-04-28T18:25:48.145Z,19.70
2018-04-28T18:30:51.353Z,19.70
2018-04-28T18:35:54.587Z,19.70
2018-04-28T18:40:58.276Z,19.60
2018-04-28T18:46:01.495Z,19.60
2018-04-28T18:51:04.730Z,19.40
2018-04-28T18:56:07.947Z,19.20
2018-04-28T19:01:11.172Z,19.00
2018-04-28T19:06:14.392Z,18.80
2018-04-28T19:11:17.628Z,18.50
2018-04-28T19:16:20.872Z,18.30
2018-04-28T19:21:24.101Z,18.10
2018-04-28T19:26:27.752Z,17.90
2018-04-28T19:31:31.380Z,17.70
2018-04-28T19:36:35.013Z,17.80
2018-04-28T19:41:38.299Z,17.70
2018-04-28T19:46:41.918Z,17.60
2018-04-28T19:51:45.620Z,17.50
2018-04-28T19:56:48.845Z,17.50
2018-04-28T20:01:52.089Z,17.20
2018-04-28T20:06:55.326Z,17.20
2018-04-28T20:11:58.558Z,17.00
2018-04-28T20:17:01.788Z,16.90
2018-04-28T20:22:16.827Z,16.70
2018-04-28T20:27:20.065Z,16.50
2018-04-28T20:32:23.662Z,16.40
2018-04-28T20:37:27.281Z,16.40
2018-04-28T20:42:30.892Z,16.50
2018-04-28T20:47:34.518Z,16.50
2018-04-28T20:52:38.154Z,16.40
2018-04-28T20:57:41.396Z,16.40
2018-04-28T21:02:44.664Z,16.50
2018-04-28T21:07:47.894Z,16.50
2018-04-28T21:12:51.118Z,16.40
2018-04-28T21:17:54.343Z,16.30
2018-04-28T21:22:57.972Z,16.20
2018-04-28T21:28:01.781Z,16.10
2018-04-28T21:33:05.418Z,16.10
2018-04-28T21:38:08.636Z,16.10
2018-04-28T21:43:12.603Z,15.80
2018-04-28T21:48:15.931Z,15.60
2018-04-28T21:53:19.606Z,15.20
2018-04-28T21:58:22.797Z,15.20
2018-04-28T22:03:26.053Z,15.10
2018-04-28T22:08:29.287Z,15.00
2018-04-28T22:13:32.704Z,14.90
2018-04-28T22:18:35.996Z,14.90
2018-04-28T22:23:39.693Z,14.80
2018-04-28T22:28:42.920Z,14.80
2018-04-28T22:33:46.525Z,14.90
2018-04-28T22:38:50.142Z,14.80
2018-04-28T22:43:54.832Z,14.80
2018-04-28T22:48:58.049Z,14.80
2018-04-28T22:54:01.278Z,14.70
2018-04-28T22:59:04.496Z,14.80
2018-04-28T23:04:08.117Z,15.00
2018-04-28T23:09:12.127Z,15.00
2018-04-28T23:14:15.353Z,15.00
2018-04-28T23:19:18.984Z,14.70
2018-04-28T23:24:22.201Z,14.70
2018-04-28T23:29:25.430Z,14.60
2018-04-28T23:34:28.646Z,14.40
2018-04-28T23:39:31.956Z,14.40
2018-04-28T23:44:35.187Z,14.20
2018-04-28T23:49:38.405Z,14.10
2018-04-28T23:54:42.015Z,13.80
2018-04-28T23:59:45.635Z,13.70
